createdAt,value
2023-05-17T00:01:56.727Z,86.96
2023-05-17T00:04:24.138Z,86.91
2023-05-17T00:06:51.468Z,86.69
2023-05-17T00:09:19.227Z,86.84
2023-05-17T00:11:46.464Z,86.77
2023-05-17T00:14:13.889Z,86.69
2023-05-17T00:16:41.344Z,86.78
2023-05-17T00:19:09.825Z,86.65
2023-05-17T00:21:37.379Z,86.85
2023-05-17T00:24:05.042Z,86.66
2023-05-17T00:26:33.785Z,86.70
2023-05-17T00:29:01.352Z,86.58
2023-05-17T00:31:28.623Z,86.84
2023-05-17T00:33:56.042Z,86.48
2023-05-17T00:36:23.314Z,86.44
2023-05-17T00:38:50.661Z,86.41
2023-05-17T00:41:18.535Z,86.29
2023-05-17T00:43:46.617Z,86.26
2023-05-17T00:46:13.876Z,86.15
2023-05-17T00:48:41.711Z,85.92
2023-05-17T00:51:09.069Z,85.90
2023-05-17T00:53:37.409Z,86.06
2023-05-17T00:56:04.984Z,86.11
2023-05-17T00:58:33.902Z,85.82
2023-05-17T01:01:01.534Z,85.89
2023-05-17T01:03:29.241Z,85.89
2023-05-17T01:05:56.704Z,85.62
2023-05-17T01:08:23.973Z,85.76
2023-05-17T01:11:16.454Z,85.51
2023-05-17T01:14:29.401Z,85.24
2023-05-17T01:17:01.266Z,85.55
2023-05-17T01:19:54.168Z,85.51
2023-05-17T01:22:39.338Z,85.57
2023-05-17T01:25:25.364Z,85.46
2023-05-17T01:27:52.670Z,85.27
2023-05-17T01:30:20.169Z,85.19
2023-05-17T01:32:47.584Z,85.50
2023-05-17T01:35:15.063Z,85.55
2023-05-17T01:37:42.375Z,85.44
2023-05-17T01:40:09.705Z,85.69
2023-05-17T01:42:41.211Z,85.18
2023-05-17T01:45:11.807Z,85.20
2023-05-17T01:48:04.954Z,85.10
2023-05-17T01:50:33.039Z,85.01
2023-05-17T01:53:09.184Z,85.26
2023-05-17T01:55:52.332Z,84.90
2023-05-17T01:58:25.668Z,85.02
2023-05-17T02:00:55.542Z,85.06
2023-05-17T02:03:22.917Z,84.52
2023-05-17T02:05:53.232Z,84.46
2023-05-17T02:08:20.623Z,84.33
2023-05-17T02:10:47.952Z,84.39
2023-05-17T02:13:15.213Z,84.40
2023-05-17T02:15:45.438Z,83.85
2023-05-17T02:18:13.133Z,83.84
2023-05-17T02:20:40.638Z,83.25
2023-05-17T02:23:08.288Z,83.10
2023-05-17T02:25:35.762Z,83.13
2023-05-17T02:28:03.195Z,83.29
2023-05-17T02:30:30.486Z,83.55
2023-05-17T02:32:57.908Z,83.07
2023-05-17T02:35:25.322Z,82.72
2023-05-17T02:37:52.820Z,82.67
2023-05-17T02:40:20.174Z,82.61
2023-05-17T02:42:47.556Z,82.17
2023-05-17T02:45:14.834Z,82.09
2023-05-17T02:47:42.815Z,82.53
2023-05-17T02:50:10.574Z,82.45
2023-05-17T02:52:38.090Z,81.82
2023-05-17T02:55:06.675Z,81.94
2023-05-17T02:57:34.072Z,82.20
2023-05-17T03:00:01.500Z,81.85
2023-05-17T03:02:29.783Z,81.79
2023-05-17T03:04:57.297Z,82.09
2023-05-17T03:07:24.725Z,82.23
2023-05-17T03:09:52.617Z,82.31
2023-05-17T03:12:20.633Z,81.73
2023-05-17T03:14:48.288Z,81.84
2023-05-17T03:17:16.021Z,82.31
2023-05-17T03:19:43.659Z,82.28
2023-05-17T03:22:11.092Z,81.87
2023-05-17T03:24:39.098Z,82.33
2023-05-17T03:27:06.674Z,81.99
2023-05-17T03:29:35.056Z,82.07
2023-05-17T03:32:02.447Z,81.89
2023-05-17T03:34:29.794Z,81.48
2023-05-17T03:36:57.293Z,81.79
2023-05-17T03:39:24.567Z,81.59
2023-05-17T03:41:51.843Z,81.49
2023-05-17T03:44:19.201Z,81.88
2023-05-17T03:46:46.836Z,81.94
2023-05-17T03:49:14.976Z,81.53
2023-05-17T03:51:42.369Z,81.32
2023-05-17T03:54:09.669Z,81.12
2023-05-17T03:56:37.015Z,81.52
2023-05-17T03:59:04.308Z,80.95
2023-05-17T04:01:31.739Z,80.82
2023-05-17T04:03:59.025Z,80.59
2023-05-17T04:06:26.975Z,80.94
2023-05-17T04:08:55.302Z,80.97
2023-05-17T04:11:26.652Z,80.67
2023-05-17T04:13:55.338Z,81.68
2023-05-17T04:16:23.405Z,81.15
2023-05-17T04:18:53.896Z,81.29
2023-05-17T04:21:21.507Z,81.27
2023-05-17T04:23:50.476Z,80.75
2023-05-17T04:26:18.116Z,80.64
2023-05-17T04:28:45.550Z,81.11
2023-05-17T04:31:16.511Z,81.34
2023-05-17T04:33:44.053Z,81.14
2023-05-17T04:36:11.641Z,80.61
2023-05-17T04:38:40.328Z,80.76
2023-05-17T04:41:11.406Z,80.39
2023-05-17T04:43:40.091Z,80.54
2023-05-17T04:46:12.749Z,80.31
2023-05-17T04:48:40.352Z,80.34
2023-05-17T04:51:07.809Z,79.76
2023-05-17T04:53:36.180Z,80.42
2023-05-17T04:56:09.360Z,79.71
2023-05-17T04:58:37.003Z,79.59
2023-05-17T05:01:05.707Z,79.74
2023-05-17T05:03:33.731Z,79.89
2023-05-17T05:06:01.276Z,79.79
2023-05-17T05:08:28.694Z,79.28
2023-05-17T05:11:00.147Z,79.30
2023-05-17T05:13:28.583Z,79.25
2023-05-17T05:15:55.912Z,79.10
2023-05-17T05:18:24.426Z,79.19
2023-05-17T05:20:51.812Z,79.00
2023-05-17T05:23:22.246Z,78.85
2023-05-17T05:25:50.081Z,78.76
2023-05-17T05:28:17.968Z,79.03
2023-05-17T05:30:45.991Z,78.90
2023-05-17T05:33:14.701Z,78.56
2023-05-17T05:35:42.668Z,78.38
2023-05-17T05:38:10.148Z,77.79
2023-05-17T05:40:37.674Z,77.79
2023-05-17T05:43:05.117Z,77.97
2023-05-17T05:45:35.408Z,77.11
2023-05-17T05:48:05.857Z,76.93
2023-05-17T05:50:35.072Z,77.19
2023-05-17T05:53:18.217Z,76.73
2023-05-17T05:55:51.280Z,77.20
2023-05-17T05:58:19.252Z,76.81
2023-05-17T06:00:47.453Z,76.34
2023-05-17T06:03:15.401Z,76.51
2023-05-17T06:05:51.065Z,76.46
2023-05-17T06:08:18.794Z,75.52
2023-05-17T06:10:46.353Z,76.31
2023-05-17T06:13:20.823Z,75.82
2023-05-17T06:15:48.813Z,76.06
2023-05-17T06:18:17.366Z,75.87
2023-05-17T06:20:45.882Z,75.91
2023-05-17T06:23:17.112Z,75.80
2023-05-17T06:25:48.086Z,75.19
2023-05-17T06:28:19.088Z,75.54
2023-05-17T06:30:49.781Z,75.14
2023-05-17T06:33:24.077Z,74.18
2023-05-17T06:35:58.709Z,75.01
2023-05-17T06:38:38.061Z,74.89
2023-05-17T06:41:14.774Z,75.66
2023-05-17T06:43:42.236Z,75.21
2023-05-17T06:46:09.634Z,75.07
2023-05-17T06:48:37.270Z,75.36
2023-05-17T06:51:12.003Z,75.55
2023-05-17T06:53:44.264Z,75.00
2023-05-17T06:56:11.792Z,75.57
2023-05-17T06:58:39.097Z,75.08
2023-05-17T07:01:06.945Z,75.45
2023-05-17T07:03:38.353Z,75.43
2023-05-17T07:06:09.286Z,74.92
2023-05-17T07:08:36.718Z,75.68
2023-05-17T07:11:04.440Z,75.43
2023-05-17T07:13:31.953Z,75.52
2023-05-17T07:15:59.702Z,75.59
2023-05-17T07:18:27.243Z,75.43
2023-05-17T07:20:54.713Z,75.68
2023-05-17T07:23:22.180Z,75.28
2023-05-17T07:25:49.738Z,75.59
2023-05-17T07:28:18.035Z,75.31
2023-05-17T07:30:45.754Z,75.90
2023-05-17T07:33:15.215Z,76.10
2023-05-17T07:35:43.759Z,76.34
2023-05-17T07:38:11.463Z,76.02
2023-05-17T07:40:38.865Z,76.30
2023-05-17T07:43:06.258Z,76.19
2023-05-17T07:45:34.025Z,76.11
2023-05-17T07:48:01.742Z,76.07
2023-05-17T07:50:29.578Z,76.07
2023-05-17T07:53:03.398Z,75.37
2023-05-17T07:55:31.029Z,74.96
2023-05-17T07:57:58.787Z,75.91
2023-05-17T08:00:26.666Z,74.72
2023-05-17T08:02:54.354Z,74.31
2023-05-17T08:05:22.571Z,73.94
2023-05-17T08:07:50.410Z,73.72
2023-05-17T08:10:18.656Z,74.14
2023-05-17T08:12:46.868Z,74.26
2023-05-17T08:15:14.367Z,73.60
2023-05-17T08:17:41.923Z,72.79
2023-05-17T08:20:22.131Z,73.52
2023-05-17T08:22:49.685Z,73.12
2023-05-17T08:25:17.224Z,73.86
2023-05-17T08:27:44.679Z,73.62
2023-05-17T08:30:28.100Z,73.82
2023-05-17T08:32:56.903Z,73.91
2023-05-17T08:35:28.634Z,74.26
2023-05-17T08:37:56.597Z,74.57
2023-05-17T08:40:24.421Z,74.39
2023-05-17T08:42:54.846Z,74.37
2023-05-17T08:45:22.352Z,73.65
2023-05-17T08:47:51.413Z,73.31
2023-05-17T08:50:19.128Z,72.66
2023-05-17T08:52:46.735Z,73.02
2023-05-17T08:55:16.752Z,72.58
2023-05-17T08:57:44.306Z,71.81
2023-05-17T09:00:15.586Z,71.97
2023-05-17T09:02:43.299Z,71.09
2023-05-17T09:05:11.319Z,71.94
2023-05-17T09:07:39.170Z,71.73
2023-05-17T09:10:07.679Z,71.06
2023-05-17T09:12:35.382Z,71.59
2023-05-17T09:15:19.103Z,71.33
2023-05-17T09:17:58.552Z,71.21
2023-05-17T09:20:37.246Z,71.39
2023-05-17T09:23:09.380Z,71.08
2023-05-17T09:25:37.353Z,70.67
2023-05-17T09:28:07.881Z,71.28
2023-05-17T09:30:38.343Z,70.76
2023-05-17T09:33:09.386Z,71.97
2023-05-17T09:35:37.563Z,71.28
2023-05-17T09:38:12.508Z,71.69
2023-05-17T09:40:40.528Z,70.77
2023-05-17T09:43:08.432Z,71.73
2023-05-17T09:45:36.434Z,71.58
2023-05-17T09:48:17.552Z,72.83
2023-05-17T09:50:46.606Z,73.03
2023-05-17T09:53:40.032Z,73.52
2023-05-17T09:56:08.233Z,73.61
2023-05-17T09:58:37.185Z,74.09
2023-05-17T10:01:06.131Z,73.57
2023-05-17T10:03:38.231Z,74.05
2023-05-17T10:06:16.605Z,74.88
2023-05-17T10:08:59.011Z,73.88
2023-05-17T10:11:34.306Z,73.25
2023-05-17T10:14:29.650Z,73.89
2023-05-17T10:16:57.481Z,74.96
2023-05-17T10:19:25.966Z,73.58
2023-05-17T10:21:54.785Z,73.80
2023-05-17T10:24:22.865Z,73.83
2023-05-17T10:26:54.150Z,74.90
2023-05-17T10:29:22.226Z,74.53
2023-05-17T10:31:55.092Z,75.52
2023-05-17T10:34:26.398Z,73.90
2023-05-17T10:36:54.183Z,74.37
2023-05-17T10:39:24.023Z,75.51
2023-05-17T10:41:53.165Z,75.83
2023-05-17T10:44:22.231Z,76.74
2023-05-17T10:46:55.156Z,78.70
2023-05-17T10:49:38.180Z,78.65
2023-05-17T10:52:13.414Z,79.26
2023-05-17T10:54:43.441Z,80.13
2023-05-17T10:57:50.575Z,79.23
2023-05-17T11:00:29.590Z,79.05
2023-05-17T11:03:14.406Z,79.36
2023-05-17T11:05:46.965Z,78.74
2023-05-17T11:08:18.287Z,78.45
2023-05-17T11:11:08.450Z,78.38
2023-05-17T11:13:46.069Z,77.90
2023-05-17T11:16:24.406Z,78.41
2023-05-17T11:18:53.653Z,79.41
2023-05-17T11:21:22.761Z,80.02
2023-05-17T11:23:56.576Z,80.44
2023-05-17T11:26:29.622Z,82.16
2023-05-17T11:29:09.707Z,82.20
2023-05-17T11:31:43.702Z,83.49
2023-05-17T11:34:11.526Z,84.86
2023-05-17T11:36:55.795Z,83.91
2023-05-17T11:39:27.600Z,84.57
2023-05-17T11:41:59.545Z,84.64
2023-05-17T11:44:33.076Z,84.24
2023-05-17T11:47:10.799Z,84.81
2023-05-17T11:49:39.232Z,84.76
2023-05-17T11:52:07.363Z,84.78
2023-05-17T11:54:35.353Z,83.85
2023-05-17T11:57:08.876Z,83.49
2023-05-17T11:59:43.107Z,84.64
2023-05-17T12:02:31.641Z,84.15
2023-05-17T12:05:00.159Z,83.48
2023-05-17T12:07:27.795Z,84.01
2023-05-17T12:09:55.313Z,83.18
2023-05-17T12:12:23.746Z,82.94
2023-05-17T12:14:51.689Z,83.84
2023-05-17T12:17:24.384Z,82.67
2023-05-17T12:19:55.593Z,83.82
2023-05-17T12:22:23.514Z,83.30
2023-05-17T12:24:51.189Z,83.14
2023-05-17T12:27:28.825Z,83.69
2023-05-17T12:29:56.681Z,83.28
2023-05-17T12:32:24.986Z,82.70
2023-05-17T12:34:52.568Z,83.09
2023-05-17T12:37:20.209Z,83.20
2023-05-17T12:39:47.968Z,82.68
2023-05-17T12:42:15.832Z,81.25
2023-05-17T12:44:43.426Z,81.35
2023-05-17T12:47:11.059Z,82.00
2023-05-17T12:49:39.809Z,80.87
2023-05-17T12:52:07.803Z,82.25
2023-05-17T12:54:35.319Z,80.99
2023-05-17T12:57:16.225Z,82.36
2023-05-17T12:59:48.242Z,80.61
2023-05-17T13:02:16.026Z,81.70
2023-05-17T13:04:43.745Z,81.40
2023-05-17T13:07:11.199Z,81.03
2023-05-17T13:09:47.365Z,81.17
2023-05-17T13:12:24.403Z,80.20
2023-05-17T13:14:53.588Z,79.37
2023-05-17T13:17:35.100Z,79.76
2023-05-17T13:20:02.848Z,79.75
2023-05-17T13:22:30.737Z,80.35
2023-05-17T13:24:58.315Z,80.33
2023-05-17T13:27:28.601Z,78.76
2023-05-17T13:29:56.054Z,78.74
2023-05-17T13:32:23.451Z,78.20
2023-05-17T13:34:51.071Z,79.20
2023-05-17T13:37:18.532Z,78.55
2023-05-17T13:39:46.050Z,78.50
2023-05-17T13:42:13.416Z,77.20
2023-05-17T13:44:40.915Z,78.49
2023-05-17T13:47:08.413Z,77.39
2023-05-17T13:49:36.251Z,77.29
2023-05-17T13:52:03.856Z,77.51
2023-05-17T13:54:31.526Z,76.66
2023-05-17T13:56:58.921Z,76.91
2023-05-17T13:59:26.328Z,76.37
2023-05-17T14:01:53.934Z,76.14
2023-05-17T14:04:21.536Z,76.19
2023-05-17T14:06:50.714Z,76.32
2023-05-17T14:09:19.102Z,77.76
2023-05-17T14:11:46.374Z,76.71
2023-05-17T14:14:13.874Z,76.88
2023-05-17T14:16:41.315Z,76.00
2023-05-17T14:19:08.854Z,75.73
2023-05-17T14:21:36.473Z,75.50
2023-05-17T14:24:04.195Z,76.33
2023-05-17T14:26:31.495Z,76.20
2023-05-17T14:28:58.944Z,75.19
2023-05-17T14:31:28.316Z,75.44
2023-05-17T14:33:55.956Z,75.61
2023-05-17T14:36:23.346Z,74.58
2023-05-17T14:38:53.811Z,74.64
2023-05-17T14:41:22.162Z,74.71
2023-05-17T14:43:49.513Z,75.77
2023-05-17T14:46:17.163Z,74.10
2023-05-17T14:48:44.596Z,74.27
2023-05-17T14:51:12.460Z,74.90
2023-05-17T14:53:39.807Z,74.24
2023-05-17T14:56:07.776Z,73.19
2023-05-17T14:58:35.154Z,73.45
2023-05-17T15:01:05.369Z,72.35
2023-05-17T15:03:35.164Z,71.41
2023-05-17T15:06:06.864Z,71.73
2023-05-17T15:08:36.092Z,71.23
2023-05-17T15:11:03.480Z,70.73
2023-05-17T15:13:31.019Z,70.80
2023-05-17T15:15:58.809Z,71.97
2023-05-17T15:18:26.275Z,72.61
2023-05-17T15:20:53.594Z,71.66
2023-05-17T15:23:21.100Z,70.88
2023-05-17T15:25:48.424Z,70.95
2023-05-17T15:28:16.090Z,71.50
2023-05-17T15:30:43.404Z,71.13
2023-05-17T15:33:11.429Z,70.86
2023-05-17T15:35:41.990Z,70.93
2023-05-17T15:38:10.991Z,71.06
2023-05-17T15:40:38.286Z,71.70
2023-05-17T15:43:05.555Z,70.39
2023-05-17T15:45:33.143Z,70.83
2023-05-17T15:48:02.095Z,70.90
2023-05-17T15:50:29.560Z,70.66
2023-05-17T15:52:56.853Z,69.93
2023-05-17T15:55:24.350Z,70.57
2023-05-17T15:57:51.716Z,70.62
2023-05-17T16:00:19.351Z,71.55
2023-05-17T16:02:46.946Z,71.26
2023-05-17T16:05:14.304Z,70.85
2023-05-17T16:07:41.964Z,71.07
2023-05-17T16:10:09.816Z,70.49
2023-05-17T16:12:37.211Z,70.86
2023-05-17T16:15:04.851Z,71.05
2023-05-17T16:17:32.330Z,71.35
2023-05-17T16:20:00.441Z,70.96
2023-05-17T16:22:28.053Z,71.90
2023-05-17T16:24:55.939Z,71.68
2023-05-17T16:27:23.393Z,71.53
2023-05-17T16:29:50.656Z,71.44
2023-05-17T16:32:18.140Z,72.00
2023-05-17T16:34:45.690Z,72.27
2023-05-17T16:37:13.147Z,72.25
2023-05-17T16:39:40.643Z,72.35
2023-05-17T16:42:07.969Z,73.25
2023-05-17T16:44:35.247Z,73.22
2023-05-17T16:47:02.842Z,73.17
2023-05-17T16:49:30.644Z,73.45
2023-05-17T16:51:58.001Z,74.10
2023-05-17T16:54:28.266Z,74.11
2023-05-17T16:56:56.315Z,74.09
2023-05-17T16:59:23.623Z,73.99
2023-05-17T17:01:51.378Z,74.65
2023-05-17T17:04:18.936Z,74.45
2023-05-17T17:06:46.465Z,74.70
2023-05-17T17:09:14.266Z,75.02
2023-05-17T17:11:41.706Z,74.28
2023-05-17T17:14:09.161Z,74.24
2023-05-17T17:16:36.879Z,73.81
2023-05-17T17:19:04.593Z,74.00
2023-05-17T17:21:36.467Z,73.47
2023-05-17T17:24:05.754Z,73.86
2023-05-17T17:26:35.378Z,74.11
2023-05-17T17:29:04.091Z,73.44
2023-05-17T17:31:31.997Z,73.31
2023-05-17T17:33:59.639Z,74.26
2023-05-17T17:36:27.145Z,73.54
2023-05-17T17:38:54.572Z,73.17
2023-05-17T17:41:23.363Z,73.66
2023-05-17T17:43:50.796Z,72.76
2023-05-17T17:46:18.044Z,73.48
2023-05-17T17:48:45.515Z,73.61
2023-05-17T17:51:12.837Z,73.71
2023-05-17T17:53:41.449Z,73.72
2023-05-17T17:56:08.858Z,74.00
2023-05-17T17:58:36.682Z,74.26
2023-05-17T18:01:04.265Z,74.33
2023-05-17T18:03:31.661Z,74.38
2023-05-17T18:05:58.942Z,74.56
2023-05-17T18:08:26.264Z,74.44
2023-05-17T18:10:53.597Z,74.69
2023-05-17T18:13:21.268Z,74.25
2023-05-17T18:15:48.619Z,74.58
2023-05-17T18:18:16.340Z,74.33
2023-05-17T18:20:43.697Z,74.00
2023-05-17T18:23:11.092Z,74.25
2023-05-17T18:25:38.509Z,74.53
2023-05-17T18:28:07.360Z,74.30
2023-05-17T18:30:36.216Z,74.33
2023-05-17T18:33:03.819Z,74.37
2023-05-17T18:35:31.292Z,74.71
2023-05-17T18:37:59.873Z,74.04
2023-05-17T18:40:27.463Z,74.28
2023-05-17T18:42:55.006Z,74.36
2023-05-17T18:45:22.472Z,74.67
2023-05-17T18:47:49.761Z,74.68
2023-05-17T18:50:17.307Z,74.14
2023-05-17T18:52:44.691Z,74.64
2023-05-17T18:55:12.065Z,74.76
2023-05-17T18:57:39.434Z,74.76
2023-05-17T19:00:07.655Z,74.29
2023-05-17T19:02:34.918Z,74.25
2023-05-17T19:05:02.219Z,74.21
2023-05-17T19:07:29.457Z,74.59
2023-05-17T19:09:56.781Z,74.33
2023-05-17T19:12:24.049Z,74.75
2023-05-17T19:14:51.376Z,74.97
2023-05-17T19:17:18.734Z,74.51
2023-05-17T19:19:46.285Z,74.97
2023-05-17T19:22:14.484Z,74.99
2023-05-17T19:24:41.793Z,74.84
2023-05-17T19:27:09.667Z,74.95
2023-05-17T19:29:37.070Z,74.84
2023-05-17T19:32:04.717Z,75.18
2023-05-17T19:34:31.979Z,75.10
2023-05-17T19:36:59.488Z,75.06
2023-05-17T19:39:26.944Z,75.40
2023-05-17T19:41:54.271Z,75.00
2023-05-17T19:44:21.596Z,74.97
2023-05-17T19:46:48.965Z,75.02
2023-05-17T19:49:16.709Z,75.25
2023-05-17T19:51:44.775Z,74.72
2023-05-17T19:54:12.057Z,74.66
2023-05-17T19:56:39.424Z,74.61
2023-05-17T19:59:06.795Z,74.92
2023-05-17T20:01:34.125Z,74.61
2023-05-17T20:04:01.650Z,75.01
2023-05-17T20:06:29.001Z,74.99
2023-05-17T20:08:56.366Z,74.78
2023-05-17T20:11:23.622Z,75.36
2023-05-17T20:13:51.013Z,75.03
2023-05-17T20:16:18.286Z,75.17
2023-05-17T20:18:45.987Z,75.13
2023-05-17T20:21:15.393Z,75.26
2023-05-17T20:23:42.855Z,75.25
2023-05-17T20:26:16.421Z,74.55
2023-05-17T20:28:44.518Z,74.97
2023-05-17T20:31:12.227Z,75.17
2023-05-17T20:33:39.590Z,74.38
2023-05-17T20:36:07.164Z,74.78
2023-05-17T20:38:34.586Z,74.38
2023-05-17T20:41:01.825Z,74.35
2023-05-17T20:43:29.648Z,74.51
2023-05-17T20:45:57.148Z,74.82
2023-05-17T20:48:24.521Z,74.98
2023-05-17T20:50:51.815Z,74.38
2023-05-17T20:53:19.095Z,75.25
2023-05-17T20:55:46.348Z,75.00
2023-05-17T20:58:13.722Z,75.44
2023-05-17T21:00:41.494Z,75.05
2023-05-17T21:03:09.698Z,75.30
2023-05-17T21:05:38.595Z,74.89
2023-05-17T21:08:07.486Z,75.18
2023-05-17T21:10:36.203Z,75.14
2023-05-17T21:13:03.477Z,75.45
2023-05-17T21:15:31.010Z,74.90
2023-05-17T21:17:58.459Z,74.90
2023-05-17T21:20:25.939Z,75.05
2023-05-17T21:22:53.188Z,75.40
2023-05-17T21:25:20.505Z,75.71
2023-05-17T21:27:47.873Z,75.16
2023-05-17T21:30:15.126Z,75.33
2023-05-17T21:32:42.544Z,75.33
2023-05-17T21:35:09.877Z,75.55
2023-05-17T21:37:38.538Z,75.07
2023-05-17T21:40:06.638Z,74.89
2023-05-17T21:42:34.200Z,75.68
2023-05-17T21:45:01.583Z,75.34
2023-05-17T21:47:28.891Z,75.36
2023-05-17T21:49:56.196Z,75.29
2023-05-17T21:52:23.526Z,74.93
2023-05-17T21:54:50.814Z,74.63
2023-05-17T21:57:21.000Z,74.92
2023-05-17T21:59:49.185Z,74.69
2023-05-17T22:02:16.781Z,74.73
2023-05-17T22:04:44.144Z,74.43
2023-05-17T22:07:11.640Z,74.25
2023-05-17T22:09:39.004Z,74.61
2023-05-17T22:12:08.507Z,75.00
2023-05-17T22:14:36.543Z,75.14
2023-05-17T22:17:08.584Z,74.76
2023-05-17T22:19:40.975Z,75.05
2023-05-17T22:22:08.590Z,74.38
2023-05-17T22:24:35.981Z,73.73
2023-05-17T22:27:03.731Z,74.05
2023-05-17T22:29:31.138Z,74.36
2023-05-17T22:31:58.636Z,74.46
2023-05-17T22:34:25.933Z,74.07
2023-05-17T22:36:55.131Z,74.32
2023-05-17T22:39:22.453Z,73.84
2023-05-17T22:41:49.890Z,74.37
2023-05-17T22:44:17.127Z,73.65
2023-05-17T22:46:46.725Z,73.47
2023-05-17T22:49:14.006Z,73.39
2023-05-17T22:51:41.301Z,74.16
2023-05-17T22:54:08.601Z,74.08
2023-05-17T22:56:36.061Z,73.51
2023-05-17T22:59:03.313Z,74.08
2023-05-17T23:01:30.700Z,73.63
2023-05-17T23:03:58.138Z,73.69
2023-05-17T23:06:26.201Z,74.01
2023-05-17T23:08:53.944Z,74.47
2023-05-17T23:11:21.223Z,74.03
2023-05-17T23:13:48.488Z,74.20
2023-05-17T23:16:15.916Z,73.93
2023-05-17T23:18:43.272Z,73.77
2023-05-17T23:21:12.064Z,73.76
2023-05-17T23:23:40.681Z,74.38
2023-05-17T23:26:08.039Z,73.76
2023-05-17T23:28:35.726Z,73.65
2023-05-17T23:31:03.038Z,74.12
2023-05-17T23:33:31.326Z,73.74
2023-05-17T23:35:58.969Z,74.24
2023-05-17T23:38:26.535Z,74.01
2023-05-17T23:40:54.127Z,73.48
2023-05-17T23:43:21.376Z,73.05
2023-05-17T23:45:48.776Z,72.78
2023-05-17T23:48:16.243Z,72.35
2023-05-17T23:50:43.660Z,72.62
2023-05-17T23:53:10.950Z,72.50
2023-05-17T23:55:38.724Z,72.38
2023-05-17T23:58:06.091Z,72.60
